KSEP

Stephenville Clark Regional Airport

Stephenville, Texas, USA
METAR KSEP 231055Z AUTO 00000KT 10SM CLR 20/18 A3004 RMK AO2 T01970182
Observed Flight Rules
May-23 @ 10:55 UTC (13 minutes ago) Visual Flight Rules
Visibility Clouds
10 miles
  • Clear skies
Temperatures Readings
Current 20°C / 68°F
Dewpoint 18°C / 64°F
Humidity 88%
Altimeter 30.04" Hg
Pressure 1017 hPa
Elevation 402
METAR KSEP 231055Z AUTO 00000KT 10SM CLR 20/18 A3004 RMK AO2 T01970182
Observed Flight Rules
May-23 @ 10:55 UTC
(13 minutes ago)
VFR
Clouds
  • Clear skies
Temperature Dewpoint
20°C / 68°F 18°C / 64°F
Humidity Altimeter Pressure
88% 30.04" Hg 1017 hPa